Time;durP1;ratioP1;P1;durP2;ratioP2;P2;SDS_P1;SDS_P2;PMS_P1;PMS_P2;Temp;Humidity;BMP_temperature;BMP_pressure;BME280_temperature;BME280_humidity;BME280_pressure;Samples;Min_cycle;Max_cycle;Signal;HPM_P1;HPM_P2
2023/01/28 00:00:53;;;;;;;;;;;;;;;-2.07;73.39;98944.82;105349;1256;100557;-66
2023/01/28 00:03:20;;;;;;;;;;;;;;;-2.05;73.40;98946.15;105246;1254;99281;-66
2023/01/28 00:05:48;;;;;;;;;;;;;;;-2.07;73.29;98940.64;105151;1260;113416;-66
2023/01/28 00:08:15;;;;;;;;;;;;;;;-2.07;73.39;98944.14;105151;1256;99294;-66
2023/01/28 00:10:45;;;;;;;;;;;;;;;-2.07;73.50;98939.98;105299;1264;99205;-65
2023/01/28 00:13:22;;;;;;;;;;;;;;;-2.08;73.73;98943.98;105102;1257;99268;-66
2023/01/28 00:15:56;;;;;;;;;;;;;;;-2.08;73.50;98941.92;105166;1266;99265;-66
2023/01/28 00:18:24;;;;;;;;;;;;;;;-2.11;73.64;98935.95;105149;1256;113024;-74
2023/01/28 00:21:03;;;;;;;;;;;;;;;-2.10;73.65;98936.20;105265;1257;99313;-70
2023/01/28 00:23:31;;;;;;;;;;;;;;;-2.06;73.47;98938.64;105233;1256;108047;-70
2023/01/28 00:25:59;;;;;;;;;;;;;;;-2.01;73.39;98938.01;105267;1269;99250;-70
2023/01/28 00:28:26;;;;;;;;;;;;;;;-1.98;73.10;98938.44;105252;1257;99243;-68
2023/01/28 00:30:53;;;;;;;;;;;;;;;-1.96;73.14;98937.88;105349;1264;99352;-71
2023/01/28 00:33:20;;;;;;;;;;;;;;;-1.96;72.91;98935.73;105321;1257;99284;-71
2023/01/28 00:35:56;;;;;;;;;;;;;;;-1.97;72.94;98936.48;105268;1257;99239;-70
2023/01/28 00:38:23;;;;;;;;;;;;;;;-1.97;73.08;98940.70;105335;1264;99871;-71
2023/01/28 00:40:50;;;;;;;;;;;;;;;-1.96;72.88;98944.13;105328;1253;99166;-71
2023/01/28 00:43:17;;;;;;;;;;;;;;;-1.97;72.96;98941.89;105072;1254;99345;-71
2023/01/28 00:45:43;;;;;;;;;;;;;;;-1.99;73.00;98939.31;105284;1257;99230;-70
2023/01/28 00:48:10;;;;;;;;;;;;;;;-2.01;72.95;98938.88;105254;1256;99322;-71
2023/01/28 00:50:38;;;;;;;;;;;;;;;-2.00;72.82;98937.38;105180;1258;99278;-70
2023/01/28 00:53:05;;;;;;;;;;;;;;;-1.98;72.92;98936.98;105309;1256;99155;-69
2023/01/28 00:55:32;;;;;;;;;;;;;;;-1.95;72.86;98934.69;105368;1256;99335;-70
2023/01/28 00:57:59;;;;;;;;;;;;;;;-1.94;72.76;98935.36;105318;1256;108231;-71
2023/01/28 01:00:26;;;;;;;;;;;;;;;-1.95;72.70;98933.98;105329;1256;99269;-69
2023/01/28 01:02:52;;;;;;;;;;;;;;;-1.96;72.62;98931.55;105307;1254;99243;-69
2023/01/28 01:05:19;;;;;;;;;;;;;;;-1.98;72.61;98931.02;105283;1256;99356;-70
2023/01/28 01:07:46;;;;;;;;;;;;;;;-1.98;72.72;98933.90;105334;1264;99272;-70
2023/01/28 01:10:15;;;;;;;;;;;;;;;-1.98;72.86;98931.00;105259;1258;99230;-71
2023/01/28 01:12:42;;;;;;;;;;;;;;;-1.99;72.79;98936.30;105248;1256;100574;-69
2023/01/28 01:15:09;;;;;;;;;;;;;;;-1.98;72.78;98939.71;105329;1257;99259;-70
2023/01/28 01:17:37;;;;;;;;;;;;;;;-1.95;72.93;98945.13;105283;1258;99253;-71
2023/01/28 01:20:05;;;;;;;;;;;;;;;-1.91;73.00;98944.10;105291;1264;100619;-70
2023/01/28 01:22:33;;;;;;;;;;;;;;;-1.87;72.54;98947.90;105246;1257;99358;-70
2023/01/28 01:25:00;;;;;;;;;;;;;;;-1.87;72.41;98951.45;105247;1257;99386;-70
2023/01/28 01:27:27;;;;;;;;;;;;;;;-1.90;72.16;98952.69;105159;1254;99247;-66
2023/01/28 01:29:54;;;;;;;;;;;;;;;-1.92;72.32;98953.48;105283;1256;99325;-66
2023/01/28 01:32:21;;;;;;;;;;;;;;;-1.93;72.20;98951.55;105183;1257;99156;-66
2023/01/28 01:34:48;;;;;;;;;;;;;;;-1.94;72.37;98949.18;105140;1268;99287;-66
2023/01/28 01:37:15;;;;;;;;;;;;;;;-1.96;72.35;98949.77;105265;1254;99255;-65
2023/01/28 01:39:42;;;;;;;;;;;;;;;-1.96;72.48;98951.48;105227;1269;99967;-74
2023/01/28 01:42:10;;;;;;;;;;;;;;;-1.98;72.58;98950.99;105345;1254;99243;-71
2023/01/28 01:44:58;;;;;;;;;;;;;;;-1.97;72.30;98954.24;105262;1257;108453;-70
2023/01/28 01:47:40;;;;;;;;;;;;;;;-1.96;72.14;98955.56;105283;1266;99233;-71
2023/01/28 01:50:26;;;;;;;;;;;;;;;-1.94;72.08;98959.80;105312;1254;99230;-70
2023/01/28 01:52:55;;;;;;;;;;;;;;;-1.94;71.93;98960.08;105263;1253;114713;-71
2023/01/28 01:55:24;;;;;;;;;;;;;;;-1.95;71.97;98957.86;105295;1256;99201;-71
2023/01/28 01:57:54;;;;;;;;;;;;;;;-1.95;72.28;98962.75;105200;1254;108751;-71
2023/01/28 02:00:21;;;;;;;;;;;;;;;-1.96;72.13;98967.34;105267;1254;99413;-70
2023/01/28 02:02:50;;;;;;;;;;;;;;;-1.98;72.58;98968.31;105275;1256;99921;-68
2023/01/28 02:05:19;;;;;;;;;;;;;;;-1.98;72.44;98969.84;105300;1257;113735;-70
2023/01/28 02:07:47;;;;;;;;;;;;;;;-1.98;72.58;98968.80;105373;1257;99376;-71
2023/01/28 02:10:14;;;;;;;;;;;;;;;-1.96;72.74;98969.16;105275;1256;108288;-71
2023/01/28 02:12:48;;;;;;;;;;;;;;;-1.93;72.50;98969.67;105328;1254;99287;-71
2023/01/28 02:15:19;;;;;;;;;;;;;;;-1.92;72.51;98974.37;105267;1253;99346;-70
2023/01/28 02:17:48;;;;;;;;;;;;;;;-1.93;72.81;98971.02;105308;1254;112624;-70
2023/01/28 02:20:33;;;;;;;;;;;;;;;-1.94;72.73;98971.11;105279;1257;99240;-71
2023/01/28 02:23:19;;;;;;;;;;;;;;;-1.95;72.99;98970.22;105201;1254;108385;-70
2023/01/28 02:26:04;;;;;;;;;;;;;;;-1.95;73.23;98972.83;105270;1257;99319;-71
2023/01/28 02:28:34;;;;;;;;;;;;;;;-1.97;73.28;98969.09;105224;1256;99261;-71
2023/01/28 02:31:02;;;;;;;;;;;;;;;-1.97;73.13;98966.81;105285;1256;114627;-65
2023/01/28 02:33:29;;;;;;;;;;;;;;;-1.95;73.41;98965.96;105300;1257;100576;-65
2023/01/28 02:36:01;;;;;;;;;;;;;;;-1.94;73.17;98967.45;105323;1257;99256;-65
2023/01/28 02:38:32;;;;;;;;;;;;;;;-1.93;73.28;98968.66;105033;1258;99278;-65
2023/01/28 02:41:09;;;;;;;;;;;;;;;-1.94;73.10;98970.55;105088;1263;99243;-65
2023/01/28 02:43:38;;;;;;;;;;;;;;;-1.95;73.49;98969.98;105042;1258;113444;-65
2023/01/28 02:48:58;;;;;;;;;;;;;;;-1.97;73.64;98976.39;105002;1254;108632;-65
2023/01/28 02:51:27;;;;;;;;;;;;;;;-1.96;73.44;98975.27;105036;1254;99349;-65
2023/01/28 02:54:02;;;;;;;;;;;;;;;-1.95;73.37;98973.20;105037;1257;100476;-65
2023/01/28 02:56:36;;;;;;;;;;;;;;;-1.92;73.43;98971.96;104871;1275;113741;-65
2023/01/28 02:59:32;;;;;;;;;;;;;;;-1.91;73.14;98970.05;105083;1258;99390;-70
2023/01/28 03:02:19;;;;;;;;;;;;;;;-1.91;73.21;98967.73;105010;1260;108212;-69
2023/01/28 03:04:46;;;;;;;;;;;;;;;-1.92;73.34;98965.56;105039;1255;99688;-71
2023/01/28 03:07:14;;;;;;;;;;;;;;;-1.94;73.34;98966.87;105051;1259;99536;-68
2023/01/28 03:09:42;;;;;;;;;;;;;;;-1.96;73.28;98964.70;105082;1260;99326;-68
2023/01/28 03:37:24;;;;;;;;;;;;;;;-1.94;73.73;98979.95;105208;1259;113223;-69
2023/01/28 03:39:51;;;;;;;;;;;;;;;-1.96;73.87;98980.11;105316;1256;100548;-69
2023/01/28 03:42:18;;;;;;;;;;;;;;;-1.96;74.01;98979.03;105147;1257;99348;-69
2023/01/28 03:44:51;;;;;;;;;;;;;;;-1.95;74.12;98981.13;105150;1257;99265;-66
2023/01/28 03:47:20;;;;;;;;;;;;;;;-1.91;74.21;98982.45;105136;1256;99189;-66
2023/01/28 03:49:50;;;;;;;;;;;;;;;-1.90;74.21;98982.06;105242;1255;113701;-66
2023/01/28 03:52:23;;;;;;;;;;;;;;;-1.89;73.74;98981.23;105312;1257;99268;-65
2023/01/28 03:54:51;;;;;;;;;;;;;;;-1.89;73.80;98983.44;105162;1254;108699;-65
2023/01/28 03:57:20;;;;;;;;;;;;;;;-1.90;73.75;98980.17;105250;1257;99268;-66
2023/01/28 03:59:48;;;;;;;;;;;;;;;-1.91;74.00;98979.52;105308;1257;99274;-65
2023/01/28 04:02:38;;;;;;;;;;;;;;;-1.91;74.03;98980.67;105206;1256;113301;-66
2023/01/28 04:05:11;;;;;;;;;;;;;;;-1.91;74.16;98975.14;105225;1254;100441;-66
2023/01/28 04:07:38;;;;;;;;;;;;;;;-1.94;73.98;98978.14;105269;1257;108871;-65
2023/01/28 04:10:07;;;;;;;;;;;;;;;-1.96;74.17;98978.98;105185;1255;99353;-65
2023/01/28 04:12:36;;;;;;;;;;;;;;;-1.98;73.97;98981.04;105276;1254;99306;-66
2023/01/28 04:15:14;;;;;;;;;;;;;;;-1.97;74.19;98981.98;105175;1256;113551;-65
2023/01/28 04:17:45;;;;;;;;;;;;;;;-1.93;74.10;98984.66;105062;1254;99712;-66
2023/01/28 04:20:12;;;;;;;;;;;;;;;-1.92;74.05;98983.73;105214;1256;108630;-70
2023/01/28 04:22:39;;;;;;;;;;;;;;;-1.89;74.16;98985.58;105160;1257;99258;-66
2023/01/28 04:25:07;;;;;;;;;;;;;;;-1.90;74.04;98988.80;105287;1257;99371;-69
2023/01/28 04:27:33;;;;;;;;;;;;;;;-1.89;74.13;98990.91;105272;1254;99258;-69
2023/01/28 04:30:00;;;;;;;;;;;;;;;-1.91;74.16;98991.59;105338;1256;100582;-68
2023/01/28 04:32:27;;;;;;;;;;;;;;;-1.91;74.42;98990.14;105189;1269;100554;-68
2023/01/28 04:34:54;;;;;;;;;;;;;;;-1.91;74.17;98992.73;105194;1257;100544;-69
2023/01/28 04:37:21;;;;;;;;;;;;;;;-1.94;74.15;98992.70;105251;1258;100541;-69
2023/01/28 04:39:48;;;;;;;;;;;;;;;-1.96;74.30;98989.69;105142;1257;99227;-67
2023/01/28 04:42:15;;;;;;;;;;;;;;;-1.98;74.32;98988.77;105065;1256;236557;-69
2023/01/28 04:44:41;;;;;;;;;;;;;;;-1.98;74.57;98989.55;105074;1256;99266;-69
2023/01/28 04:47:08;;;;;;;;;;;;;;;-1.96;74.50;98994.78;105285;1256;100991;-69
2023/01/28 04:49:35;;;;;;;;;;;;;;;-1.94;74.22;98994.72;105291;1256;99671;-69
2023/01/28 04:52:02;;;;;;;;;;;;;;;-1.93;74.52;98997.59;105314;1256;99249;-69
2023/01/28 04:54:29;;;;;;;;;;;;;;;-1.93;74.67;98994.92;105218;1257;100564;-69
2023/01/28 04:56:56;;;;;;;;;;;;;;;-1.95;74.63;98995.55;105304;1254;99265;-69
2023/01/28 04:59:23;;;;;;;;;;;;;;;-1.95;74.86;98996.48;105027;1256;99250;-69
2023/01/28 05:01:50;;;;;;;;;;;;;;;-1.95;74.82;98996.01;105031;1256;99243;-69
2023/01/28 05:04:17;;;;;;;;;;;;;;;-1.97;74.89;98995.83;105168;1268;100644;-69
2023/01/28 05:06:43;;;;;;;;;;;;;;;-1.98;74.90;99002.08;105252;1256;99323;-69
2023/01/28 05:09:10;;;;;;;;;;;;;;;-1.96;74.95;99000.36;105388;1270;99309;-69
2023/01/28 05:11:37;;;;;;;;;;;;;;;-1.95;74.89;98998.78;105120;1255;99292;-68
2023/01/28 05:14:04;;;;;;;;;;;;;;;-1.96;74.84;99002.20;105255;1256;109769;-67
2023/01/28 05:16:33;;;;;;;;;;;;;;;-1.96;75.09;99000.36;105226;1257;99284;-69
2023/01/28 05:19:00;;;;;;;;;;;;;;;-1.98;74.95;99000.30;105317;1266;99309;-69
2023/01/28 05:21:29;;;;;;;;;;;;;;;-2.00;75.13;99004.98;105188;1257;113592;-69
2023/01/28 05:24:02;;;;;;;;;;;;;;;-2.00;75.03;99004.98;105040;1254;99446;-69
2023/01/28 05:26:30;;;;;;;;;;;;;;;-2.00;75.20;99001.92;105168;1257;108918;-69
2023/01/28 05:28:57;;;;;;;;;;;;;;;-2.01;75.13;99003.02;105157;1256;99259;-68
2023/01/28 05:31:24;;;;;;;;;;;;;;;-2.02;75.31;99009.80;105045;1264;99324;-69
2023/01/28 05:33:51;;;;;;;;;;;;;;;-2.03;74.94;99011.77;105019;1268;99246;-69
2023/01/28 05:36:18;;;;;;;;;;;;;;;-2.02;74.99;99012.94;105184;1252;99278;-69
2023/01/28 05:38:45;;;;;;;;;;;;;;;-2.02;75.06;99016.52;105003;1254;99293;-66
2023/01/28 05:41:12;;;;;;;;;;;;;;;-2.01;75.10;99017.64;105037;1256;99343;-66
2023/01/28 05:43:39;;;;;;;;;;;;;;;-2.02;75.02;99022.97;105303;1256;99249;-67
2023/01/28 05:46:06;;;;;;;;;;;;;;;-2.05;75.02;99024.61;105085;1261;99396;-69
2023/01/28 05:48:33;;;;;;;;;;;;;;;-2.07;75.22;99025.13;105264;1257;99348;-70
2023/01/28 05:51:00;;;;;;;;;;;;;;;-2.08;75.19;99028.70;105255;1256;99227;-70
2023/01/28 05:53:27;;;;;;;;;;;;;;;-2.07;75.26;99031.13;105238;1267;99284;-66
2023/01/28 05:55:54;;;;;;;;;;;;;;;-2.07;75.09;99036.20;105290;1257;99255;-68
2023/01/28 05:58:21;;;;;;;;;;;;;;;-2.03;75.36;99041.21;104998;1256;99341;-68
2023/01/28 06:00:48;;;;;;;;;;;;;;;-1.99;75.18;99040.71;105129;1275;99282;-69
2023/01/28 06:03:14;;;;;;;;;;;;;;;-1.96;75.22;99047.80;105300;1254;100561;-69
2023/01/28 06:05:41;;;;;;;;;;;;;;;-1.96;74.86;99050.15;104970;1257;113671;-67
2023/01/28 06:08:09;;;;;;;;;;;;;;;-1.97;75.00;99053.89;105235;1254;99355;-69
2023/01/28 06:10:35;;;;;;;;;;;;;;;-1.98;74.78;99060.20;105256;1252;99330;-67
2023/01/28 06:13:02;;;;;;;;;;;;;;;-2.01;74.59;99063.50;105198;1257;99327;-67
2023/01/28 06:15:29;;;;;;;;;;;;;;;-2.02;74.87;99064.58;105180;1275;99852;-67
2023/01/28 06:17:56;;;;;;;;;;;;;;;-2.05;74.76;99063.58;105318;1257;99339;-67
2023/01/28 06:20:23;;;;;;;;;;;;;;;-2.04;74.72;99069.36;105169;1256;99227;-70
2023/01/28 06:22:50;;;;;;;;;;;;;;;-2.04;74.72;99070.13;105258;1257;99242;-69
2023/01/28 06:25:17;;;;;;;;;;;;;;;-2.04;74.55;99073.73;105316;1256;99273;-67
2023/01/28 06:27:45;;;;;;;;;;;;;;;-2.03;74.26;99077.61;105414;1257;100554;-67
2023/01/28 06:30:12;;;;;;;;;;;;;;;-2.04;74.39;99080.23;105319;1256;100567;-67
2023/01/28 06:32:39;;;;;;;;;;;;;;;-2.06;74.00;99081.95;105175;1256;99268;-68
2023/01/28 06:35:07;;;;;;;;;;;;;;;-2.08;74.11;99081.91;105188;1254;99371;-70
2023/01/28 06:37:34;;;;;;;;;;;;;;;-2.09;74.34;99082.16;105334;1257;99336;-68
2023/01/28 06:40:01;;;;;;;;;;;;;;;-2.09;74.22;99082.79;105204;1260;99376;-67
2023/01/28 06:42:28;;;;;;;;;;;;;;;-2.10;74.28;99087.01;105207;1270;99246;-66
2023/01/28 06:44:55;;;;;;;;;;;;;;;-2.11;74.17;99089.29;105258;1261;99331;-66
2023/01/28 06:47:22;;;;;;;;;;;;;;;-2.08;74.32;99092.11;105253;1257;99295;-66
2023/01/28 06:49:48;;;;;;;;;;;;;;;-2.08;74.05;99095.46;105350;1254;100558;-66
2023/01/28 06:52:15;;;;;;;;;;;;;;;-2.07;74.29;99097.59;105202;1256;99493;-66
2023/01/28 06:54:42;;;;;;;;;;;;;;;-2.07;74.21;99100.98;105267;1257;99255;-65
2023/01/28 06:57:09;;;;;;;;;;;;;;;-2.08;74.36;99099.02;104951;1272;99860;-66
2023/01/28 06:59:36;;;;;;;;;;;;;;;-2.08;74.26;99100.62;105093;1269;99223;-66
2023/01/28 07:02:02;;;;;;;;;;;;;;;-2.08;74.44;99102.64;104980;1266;99320;-67
2023/01/28 07:04:30;;;;;;;;;;;;;;;-2.08;74.42;99105.23;105081;1256;99387;-66
2023/01/28 07:06:57;;;;;;;;;;;;;;;-2.08;74.41;99109.14;105170;1257;100416;-68
2023/01/28 07:09:24;;;;;;;;;;;;;;;-2.07;74.37;99114.34;104891;1259;99303;-70
2023/01/28 07:11:51;;;;;;;;;;;;;;;-2.04;74.41;99107.41;105090;1256;100576;-67
2023/01/28 07:14:18;;;;;;;;;;;;;;;-2.01;74.32;99111.97;105066;1257;99218;-69
2023/01/28 07:16:44;;;;;;;;;;;;;;;-1.97;74.11;99117.65;105006;1256;99304;-67
2023/01/28 07:19:11;;;;;;;;;;;;;;;-1.94;74.39;99121.95;105216;1266;99259;-69
2023/01/28 07:21:38;;;;;;;;;;;;;;;-1.96;73.91;99120.86;105028;1257;112768;-67
2023/01/28 07:24:05;;;;;;;;;;;;;;;-1.99;74.04;99123.63;105022;1254;99278;-68
2023/01/28 07:26:32;;;;;;;;;;;;;;;-1.99;74.35;99122.79;105004;1260;99373;-69
2023/01/28 07:28:59;;;;;;;;;;;;;;;-2.01;74.27;99124.04;105242;1256;99279;-68
2023/01/28 07:31:26;;;;;;;;;;;;;;;-2.03;74.26;99122.85;105323;1257;99284;-70
2023/01/28 07:33:52;;;;;;;;;;;;;;;-2.03;74.20;99123.44;105240;1257;100586;-70
2023/01/28 07:36:19;;;;;;;;;;;;;;;-2.02;74.34;99130.20;105291;1268;99261;-70
2023/01/28 07:38:46;;;;;;;;;;;;;;;-2.00;74.00;99131.55;105151;1256;100547;-69
2023/01/28 07:41:13;;;;;;;;;;;;;;;-2.02;73.80;99128.80;105178;1256;100576;-68
2023/01/28 07:43:40;;;;;;;;;;;;;;;-2.04;73.95;99127.54;105242;1257;100521;-70
2023/01/28 07:46:07;;;;;;;;;;;;;;;-2.04;74.45;99131.14;105251;1256;100580;-70
2023/01/28 07:48:34;;;;;;;;;;;;;;;-2.02;74.32;99131.03;105176;1252;99320;-67
2023/01/28 07:51:01;;;;;;;;;;;;;;;-2.03;74.16;99135.38;105042;1260;99458;-65
2023/01/28 07:53:28;;;;;;;;;;;;;;;-2.02;74.31;99136.19;105262;1256;99239;-68
2023/01/28 07:56:00;;;;;;;;;;;;;;;-2.02;74.18;99140.45;105351;1257;99871;-68
2023/01/28 07:58:27;;;;;;;;;;;;;;;-1.98;74.16;99144.44;105274;1256;107662;-68
2023/01/28 08:00:57;;;;;;;;;;;;;;;-1.94;74.39;99142.37;105283;1257;100557;-68
2023/01/28 08:03:25;;;;;;;;;;;;;;;-1.92;73.98;99142.23;105140;1257;99230;-65
2023/01/28 08:05:54;;;;;;;;;;;;;;;-1.91;73.80;99140.41;105141;1257;113492;-64
2023/01/28 08:08:22;;;;;;;;;;;;;;;-1.92;73.96;99142.11;105185;1257;99262;-64
2023/01/28 08:10:49;;;;;;;;;;;;;;;-1.92;73.95;99138.67;105249;1256;108364;-65
2023/01/28 08:13:16;;;;;;;;;;;;;;;-1.92;73.86;99143.19;105227;1256;100465;-64
2023/01/28 08:15:44;;;;;;;;;;;;;;;-1.92;74.13;99146.41;105318;1256;100662;-65
2023/01/28 08:18:12;;;;;;;;;;;;;;;-1.91;74.00;99153.80;105223;1257;100551;-65
2023/01/28 08:20:40;;;;;;;;;;;;;;;-1.89;74.10;99155.98;105214;1257;99249;-66
2023/01/28 08:23:17;;;;;;;;;;;;;;;-1.84;74.19;99154.64;105236;1269;107576;-65
2023/01/28 08:25:45;;;;;;;;;;;;;;;-1.83;73.91;99153.90;105132;1257;99237;-65
2023/01/28 08:28:12;;;;;;;;;;;;;;;-1.82;73.89;99152.27;105205;1256;99304;-71
2023/01/28 08:30:40;;;;;;;;;;;;;;;-1.81;74.04;99159.29;105110;1267;113741;-73
2023/01/28 08:33:08;;;;;;;;;;;;;;;-1.79;73.95;99160.39;105345;1254;100265;-70
2023/01/28 08:35:36;;;;;;;;;;;;;;;-1.78;73.86;99163.20;105277;1254;108144;-70
2023/01/28 08:38:09;;;;;;;;;;;;;;;-1.75;74.10;99162.10;105307;1256;99450;-67
2023/01/28 08:40:36;;;;;;;;;;;;;;;-1.71;74.08;99161.23;105354;1264;99222;-68
2023/01/28 08:43:03;;;;;;;;;;;;;;;-1.66;73.85;99163.52;105281;1266;99262;-68
2023/01/28 08:45:30;;;;;;;;;;;;;;;-1.61;73.64;99166.77;105284;1256;100568;-68
2023/01/28 08:48:02;;;;;;;;;;;;;;;-1.57;73.61;99165.12;105266;1256;99328;-68
2023/01/28 08:50:33;;;;;;;;;;;;;;;-1.57;73.31;99168.48;105231;1267;100556;-68
2023/01/28 08:53:02;;;;;;;;;;;;;;;-1.56;73.33;99170.65;105299;1257;99708;-68
2023/01/28 08:55:29;;;;;;;;;;;;;;;-1.55;73.34;99174.33;105177;1275;113618;-68
2023/01/28 08:57:56;;;;;;;;;;;;;;;-1.58;73.47;99171.98;105105;1259;99310;-68
2023/01/28 09:00:24;;;;;;;;;;;;;;;-1.59;73.28;99172.53;105180;1256;107548;-68
2023/01/28 09:02:51;;;;;;;;;;;;;;;-1.58;73.17;99176.96;105191;1256;99304;-68
2023/01/28 09:05:19;;;;;;;;;;;;;;;-1.60;73.27;99172.67;105192;1267;99744;-68
2023/01/28 09:07:46;;;;;;;;;;;;;;;-1.56;73.24;99180.20;105288;1254;99342;-67
2023/01/28 09:10:14;;;;;;;;;;;;;;;-1.51;73.31;99182.34;105269;1269;100429;-68
2023/01/28 09:12:43;;;;;;;;;;;;;;;-1.47;73.30;99183.81;105344;1254;108595;-68
2023/01/28 09:15:10;;;;;;;;;;;;;;;-1.46;72.83;99180.11;105340;1257;99316;-68
2023/01/28 09:17:38;;;;;;;;;;;;;;;-1.44;72.98;99176.79;105432;1267;99564;-67
2023/01/28 09:20:06;;;;;;;;;;;;;;;-1.43;72.85;99178.67;105098;1257;113690;-68
2023/01/28 09:22:33;;;;;;;;;;;;;;;-1.43;72.94;99184.52;105082;1256;99683;-68
2023/01/28 09:25:00;;;;;;;;;;;;;;;-1.44;72.74;99184.02;105120;1256;99441;-69
2023/01/28 09:27:27;;;;;;;;;;;;;;;-1.41;72.55;99187.82;105153;1266;99274;-68
2023/01/28 09:29:54;;;;;;;;;;;;;;;-1.42;72.35;99189.39;105274;1257;100557;-65
2023/01/28 09:32:22;;;;;;;;;;;;;;;-1.41;72.60;99187.23;105182;1257;100567;-65
2023/01/28 09:34:49;;;;;;;;;;;;;;;-1.37;72.47;99187.19;105123;1256;100586;-64
2023/01/28 09:37:17;;;;;;;;;;;;;;;-1.35;72.40;99184.08;105190;1266;100625;-66
2023/01/28 09:39:44;;;;;;;;;;;;;;;-1.35;72.44;99185.52;104955;1259;99288;-66
2023/01/28 09:42:31;;;;;;;;;;;;;;;-1.36;72.12;99185.98;105187;1257;99356;-67
2023/01/28 09:45:16;;;;;;;;;;;;;;;-1.39;72.05;99187.79;105141;1262;113285;-65
2023/01/28 09:47:46;;;;;;;;;;;;;;;-1.37;72.41;99189.51;104919;1264;99242;-65
2023/01/28 09:50:22;;;;;;;;;;;;;;;-1.32;72.04;99189.04;105182;1266;108049;-67
2023/01/28 09:52:49;;;;;;;;;;;;;;;-1.29;72.01;99191.20;105207;1256;100557;-72
2023/01/28 09:55:35;;;;;;;;;;;;;;;-1.29;71.76;99190.80;105294;1256;99277;-69
2023/01/28 09:58:04;;;;;;;;;;;;;;;-1.31;72.01;99183.85;105293;1268;114651;-69
2023/01/28 10:00:46;;;;;;;;;;;;;;;-1.28;72.20;99185.31;105322;1264;99339;-70
2023/01/28 10:03:25;;;;;;;;;;;;;;;-1.20;72.56;99185.58;105296;1267;108643;-67
2023/01/28 10:06:07;;;;;;;;;;;;;;;-1.17;72.06;99179.34;105255;1257;99261;-67
2023/01/28 10:08:37;;;;;;;;;;;;;;;-1.09;72.00;99174.58;105277;1256;99245;-67
2023/01/28 10:11:04;;;;;;;;;;;;;;;-1.04;71.89;99178.95;105267;1257;113075;-67
2023/01/28 10:13:38;;;;;;;;;;;;;;;-1.04;71.37;99176.80;105271;1264;99253;-67
2023/01/28 10:16:27;;;;;;;;;;;;;;;-1.02;71.61;99176.06;105314;1266;107551;-67
2023/01/28 10:19:04;;;;;;;;;;;;;;;-0.90;71.47;99172.42;105258;1267;100563;-67
2023/01/28 10:21:32;;;;;;;;;;;;;;;-0.83;71.10;99171.76;105039;1262;99323;-69
2023/01/28 10:24:05;;;;;;;;;;;;;;;-0.78;70.71;99182.75;105176;1266;99358;-68
2023/01/28 10:26:35;;;;;;;;;;;;;;;-0.75;71.10;99174.44;105059;1266;99358;-68
2023/01/28 10:29:08;;;;;;;;;;;;;;;-0.73;70.51;99172.88;105216;1256;107490;-67
2023/01/28 10:31:38;;;;;;;;;;;;;;;-0.77;70.12;99177.69;105144;1266;99221;-67
2023/01/28 10:34:06;;;;;;;;;;;;;;;-0.87;69.92;99180.45;105222;1257;99187;-67
2023/01/28 10:36:33;;;;;;;;;;;;;;;-0.91;70.15;99182.12;105251;1264;99249;-69
2023/01/28 10:39:00;;;;;;;;;;;;;;;-0.96;70.12;99180.27;105290;1267;99332;-68
2023/01/28 10:41:27;;;;;;;;;;;;;;;-0.96;70.54;99182.09;105249;1262;99352;-67
2023/01/28 10:43:56;;;;;;;;;;;;;;;-0.97;70.67;99182.77;105368;1256;99298;-67
2023/01/28 10:46:27;;;;;;;;;;;;;;;-0.99;70.29;99181.83;105312;1256;99384;-69
2023/01/28 10:49:03;;;;;;;;;;;;;;;-1.03;70.48;99182.58;105182;1266;113228;-67
2023/01/28 10:51:32;;;;;;;;;;;;;;;-1.00;70.76;99182.25;105235;1266;99451;-69
2023/01/28 10:53:59;;;;;;;;;;;;;;;-0.97;70.82;99184.86;105248;1257;107872;-66
2023/01/28 10:56:29;;;;;;;;;;;;;;;-0.95;70.30;99184.81;105250;1257;99278;-66
2023/01/28 10:58:59;;;;;;;;;;;;;;;-0.96;70.25;99182.63;105315;1264;99339;-66
2023/01/28 11:01:40;;;;;;;;;;;;;;;-0.93;70.60;99180.95;105274;1257;112256;-66
2023/01/28 11:04:28;;;;;;;;;;;;;;;-0.89;70.71;99178.20;105115;1267;100567;-66
2023/01/28 11:07:00;;;;;;;;;;;;;;;-0.90;70.35;99178.62;105250;1252;108731;-66
2023/01/28 11:09:29;;;;;;;;;;;;;;;-0.94;70.30;99180.80;105012;1264;99237;-65
2023/01/28 11:12:10;;;;;;;;;;;;;;;-0.99;70.30;99180.50;105108;1267;99239;-66
2023/01/28 11:14:37;;;;;;;;;;;;;;;-1.01;70.57;99178.33;105318;1267;112566;-66
2023/01/28 11:17:12;;;;;;;;;;;;;;;-0.98;70.71;99173.45;105201;1266;100620;-71
2023/01/28 11:19:39;;;;;;;;;;;;;;;-0.94;70.48;99176.61;105345;1257;108612;-70
2023/01/28 11:22:18;;;;;;;;;;;;;;;-0.91;70.30;99172.05;105311;1257;99786;-69
2023/01/28 11:24:45;;;;;;;;;;;;;;;-0.93;69.90;99168.14;105302;1255;100426;-68
2023/01/28 11:27:17;;;;;;;;;;;;;;;-0.85;70.57;99173.15;105275;1256;99252;-68
2023/01/28 11:29:44;;;;;;;;;;;;;;;-0.70;70.50;99174.74;105272;1264;99335;-68
2023/01/28 11:32:18;;;;;;;;;;;;;;;-0.62;69.76;99176.55;105301;1266;99262;-68
2023/01/28 11:34:50;;;;;;;;;;;;;;;-0.61;69.45;99169.54;105337;1256;99239;-68
2023/01/28 11:37:20;;;;;;;;;;;;;;;-0.58;69.63;99165.19;105220;1257;100449;-67
2023/01/28 11:39:47;;;;;;;;;;;;;;;-0.59;69.16;99168.45;105218;1266;113504;-68
2023/01/28 11:42:18;;;;;;;;;;;;;;;-0.63;69.33;99167.99;105350;1256;99227;-68
2023/01/28 11:44:46;;;;;;;;;;;;;;;-0.67;69.01;99171.88;105391;1254;107513;-70
2023/01/28 11:47:24;;;;;;;;;;;;;;;-0.67;69.26;99170.31;105102;1257;99243;-69
2023/01/28 11:49:51;;;;;;;;;;;;;;;-0.67;69.33;99166.39;105262;1257;99360;-69
2023/01/28 11:52:18;;;;;;;;;;;;;;;-0.68;69.21;99165.53;105078;1265;99303;-68
2023/01/28 11:54:51;;;;;;;;;;;;;;;-0.70;69.09;99168.83;105236;1266;99378;-69
2023/01/28 11:57:50;;;;;;;;;;;;;;;-0.71;69.31;99168.00;105120;1264;108477;-69
2023/01/28 12:00:30;;;;;;;;;;;;;;;-0.74;69.33;99163.00;104547;1275;99394;-69
2023/01/28 12:03:15;;;;;;;;;;;;;;;-0.73;68.95;99161.24;104644;1275;99964;-69
2023/01/28 12:05:48;;;;;;;;;;;;;;;-0.70;69.46;99159.83;104547;1276;113238;-69
2023/01/28 12:08:19;;;;;;;;;;;;;;;-0.63;69.09;99167.25;104581;1274;100433;-69
2023/01/28 12:11:06;;;;;;;;;;;;;;;-0.68;68.44;99163.87;104533;1267;108904;-70
2023/01/28 12:13:53;;;;;;;;;;;;;;;-0.69;68.31;99163.59;104601;1263;100709;-69
2023/01/28 12:16:20;;;;;;;;;;;;;;;-0.66;68.56;99163.71;104439;1265;99305;-69
2023/01/28 12:18:53;;;;;;;;;;;;;;;-0.64;68.34;99161.84;104389;1274;99467;-67
2023/01/28 12:21:39;;;;;;;;;;;;;;;-0.55;69.15;99159.16;104609;1265;99549;-67
2023/01/28 12:24:22;;;;;;;;;;;;;;;-0.47;68.26;99157.64;104388;1268;107618;-66
2023/01/28 12:27:20;;;;;;;;;;;;;;;-0.47;67.98;99161.48;104513;1274;99348;-66
2023/01/28 12:30:00;;;;;;;;;;;;;;;-0.49;68.28;99156.03;104539;1274;99263;-65
2023/01/28 12:32:38;;;;;;;;;;;;;;;-0.43;68.34;99160.80;104420;1266;112717;-66
2023/01/28 12:35:16;;;;;;;;;;;;;;;-0.34;68.66;99154.10;104377;1264;99747;-65
2023/01/28 12:37:59;;;;;;;;;;;;;;;-0.22;68.52;99149.19;105251;1257;108602;-65
2023/01/28 12:40:59;;;;;;;;;;;;;;;-0.20;67.67;99155.27;105257;1266;99276;-74
2023/01/28 12:43:37;;;;;;;;;;;;;;;-0.23;68.05;99155.55;104608;1267;99261;-69
2023/01/28 12:46:21;;;;;;;;;;;;;;;-0.23;67.92;99157.61;104671;1266;112420;-69
2023/01/28 12:48:50;;;;;;;;;;;;;;;-0.29;67.84;99161.08;104636;1275;99414;-67
2023/01/28 12:51:24;;;;;;;;;;;;;;;-0.27;68.43;99157.09;104587;1266;108638;-70
2023/01/28 12:53:59;;;;;;;;;;;;;;;-0.21;68.34;99157.02;104678;1273;99272;-69
2023/01/28 12:56:30;;;;;;;;;;;;;;;-0.23;68.00;99163.80;104643;1273;99345;-69
2023/01/28 12:59:01;;;;;;;;;;;;;;;-0.28;68.03;99164.20;104566;1273;113571;-70
2023/01/28 13:01:36;;;;;;;;;;;;;;;-0.32;68.17;99171.06;104632;1267;99483;-70
2023/01/28 13:04:15;;;;;;;;;;;;;;;-0.33;68.53;99171.31;104616;1271;108841;-70
2023/01/28 13:06:54;;;;;;;;;;;;;;;-0.39;68.05;99172.44;104615;1274;99378;-70
2023/01/28 13:09:24;;;;;;;;;;;;;;;-0.43;68.52;99173.96;104622;1273;99527;-69
2023/01/28 13:11:53;;;;;;;;;;;;;;;-0.44;68.58;99174.95;104626;1265;113584;-69
2023/01/28 13:14:23;;;;;;;;;;;;;;;-0.45;68.54;99176.52;104664;1270;99414;-70
2023/01/28 13:16:50;;;;;;;;;;;;;;;-0.44;68.95;99178.89;104584;1260;108751;-70